sensor_id;sensor_type;location;lat;lon;timestamp;P1;durP1;ratioP1;P2;durP2;ratioP2
73296;SDS011;61524;50.938;11.396;2023-08-30T00:01:18;2.97;;;1.40;;
73296;SDS011;61524;50.938;11.396;2023-08-30T00:03:44;3.40;;;1.40;;
73296;SDS011;61524;50.938;11.396;2023-08-30T00:06:09;3.73;;;1.60;;
73296;SDS011;61524;50.938;11.396;2023-08-30T00:08:34;3.33;;;1.57;;
73296;SDS011;61524;50.938;11.396;2023-08-30T00:11:00;10.32;;;3.00;;
73296;SDS011;61524;50.938;11.396;2023-08-30T00:13:28;2.97;;;1.63;;
73296;SDS011;61524;50.938;11.396;2023-08-30T00:15:54;11.68;;;2.75;;
73296;SDS011;61524;50.938;11.396;2023-08-30T00:18:20;3.67;;;1.70;;
73296;SDS011;61524;50.938;11.396;2023-08-30T00:20:45;9.95;;;2.53;;
73296;SDS011;61524;50.938;11.396;2023-08-30T00:23:10;3.27;;;1.80;;
73296;SDS011;61524;50.938;11.396;2023-08-30T00:25:35;5.57;;;1.93;;
73296;SDS011;61524;50.938;11.396;2023-08-30T00:28:01;4.73;;;1.60;;
73296;SDS011;61524;50.938;11.396;2023-08-30T00:30:26;5.47;;;2.23;;
73296;SDS011;61524;50.938;11.396;2023-08-30T00:32:52;4.85;;;2.10;;
73296;SDS011;61524;50.938;11.396;2023-08-30T00:35:17;3.55;;;1.90;;
73296;SDS011;61524;50.938;11.396;2023-08-30T00:37:42;4.37;;;1.50;;
73296;SDS011;61524;50.938;11.396;2023-08-30T00:40:08;4.05;;;1.60;;
73296;SDS011;61524;50.938;11.396;2023-08-30T00:42:33;2.92;;;1.67;;
73296;SDS011;61524;50.938;11.396;2023-08-30T00:44:58;4.33;;;1.63;;
73296;SDS011;61524;50.938;11.396;2023-08-30T00:47:24;3.67;;;1.60;;
73296;SDS011;61524;50.938;11.396;2023-08-30T00:49:49;2.67;;;1.42;;
73296;SDS011;61524;50.938;11.396;2023-08-30T00:52:14;3.35;;;1.48;;
73296;SDS011;61524;50.938;11.396;2023-08-30T00:54:40;2.92;;;1.60;;
73296;SDS011;61524;50.938;11.396;2023-08-30T00:57:05;3.33;;;1.70;;
73296;SDS011;61524;50.938;11.396;2023-08-30T00:59:32;3.83;;;1.65;;
73296;SDS011;61524;50.938;11.396;2023-08-30T01:01:57;6.43;;;1.38;;
73296;SDS011;61524;50.938;11.396;2023-08-30T01:04:23;4.18;;;1.52;;
73296;SDS011;61524;50.938;11.396;2023-08-30T01:06:49;4.75;;;2.00;;
73296;SDS011;61524;50.938;11.396;2023-08-30T01:09:14;3.20;;;1.63;;
73296;SDS011;61524;50.938;11.396;2023-08-30T01:16:31;3.28;;;1.88;;
73296;SDS011;61524;50.938;11.396;2023-08-30T01:18:56;3.25;;;2.22;;
73296;SDS011;61524;50.938;11.396;2023-08-30T01:24:09;4.28;;;1.65;;
73296;SDS011;61524;50.938;11.396;2023-08-30T01:29:04;3.87;;;1.87;;
73296;SDS011;61524;50.938;11.396;2023-08-30T01:31:31;5.07;;;2.65;;
73296;SDS011;61524;50.938;11.396;2023-08-30T01:33:58;5.03;;;2.30;;
73296;SDS011;61524;50.938;11.396;2023-08-30T01:36:24;4.35;;;2.30;;
73296;SDS011;61524;50.938;11.396;2023-08-30T01:38:49;4.70;;;2.42;;
73296;SDS011;61524;50.938;11.396;2023-08-30T01:41:15;5.90;;;2.00;;
73296;SDS011;61524;50.938;11.396;2023-08-30T01:43:41;5.68;;;2.17;;
73296;SDS011;61524;50.938;11.396;2023-08-30T01:46:06;5.45;;;2.03;;
73296;SDS011;61524;50.938;11.396;2023-08-30T01:48:32;3.88;;;2.13;;
73296;SDS011;61524;50.938;11.396;2023-08-30T01:50:58;5.43;;;1.98;;
73296;SDS011;61524;50.938;11.396;2023-08-30T01:53:25;5.55;;;2.33;;
73296;SDS011;61524;50.938;11.396;2023-08-30T01:55:51;4.60;;;2.13;;
73296;SDS011;61524;50.938;11.396;2023-08-30T01:58:16;4.57;;;2.27;;
73296;SDS011;61524;50.938;11.396;2023-08-30T02:00:42;4.35;;;2.05;;
73296;SDS011;61524;50.938;11.396;2023-08-30T02:03:10;5.53;;;2.53;;
73296;SDS011;61524;50.938;11.396;2023-08-30T02:05:37;4.10;;;1.55;;
73296;SDS011;61524;50.938;11.396;2023-08-30T02:08:13;5.22;;;2.15;;
73296;SDS011;61524;50.938;11.396;2023-08-30T02:10:41;4.13;;;1.90;;
73296;SDS011;61524;50.938;11.396;2023-08-30T02:13:06;5.53;;;2.63;;
73296;SDS011;61524;50.938;11.396;2023-08-30T02:15:33;3.63;;;1.95;;
73296;SDS011;61524;50.938;11.396;2023-08-30T02:17:58;4.57;;;1.75;;
73296;SDS011;61524;50.938;11.396;2023-08-30T02:20:24;5.55;;;2.05;;
73296;SDS011;61524;50.938;11.396;2023-08-30T02:22:50;9.15;;;1.83;;
73296;SDS011;61524;50.938;11.396;2023-08-30T02:25:15;3.47;;;2.07;;
73296;SDS011;61524;50.938;11.396;2023-08-30T02:27:40;4.40;;;2.40;;
73296;SDS011;61524;50.938;11.396;2023-08-30T02:30:06;4.50;;;1.93;;
73296;SDS011;61524;50.938;11.396;2023-08-30T02:32:32;3.53;;;2.22;;
73296;SDS011;61524;50.938;11.396;2023-08-30T02:34:57;3.67;;;1.98;;
73296;SDS011;61524;50.938;11.396;2023-08-30T02:37:22;5.03;;;2.00;;
73296;SDS011;61524;50.938;11.396;2023-08-30T02:39:48;3.20;;;1.50;;
73296;SDS011;61524;50.938;11.396;2023-08-30T02:42:13;4.10;;;1.57;;
73296;SDS011;61524;50.938;11.396;2023-08-30T02:44:38;4.35;;;2.05;;
73296;SDS011;61524;50.938;11.396;2023-08-30T02:47:04;3.63;;;1.80;;
73296;SDS011;61524;50.938;11.396;2023-08-30T02:49:29;5.43;;;2.17;;
73296;SDS011;61524;50.938;11.396;2023-08-30T02:51:54;5.68;;;2.42;;
73296;SDS011;61524;50.938;11.396;2023-08-30T02:54:20;3.60;;;1.77;;
73296;SDS011;61524;50.938;11.396;2023-08-30T02:56:45;3.27;;;1.67;;
73296;SDS011;61524;50.938;11.396;2023-08-30T02:59:10;4.43;;;1.90;;
73296;SDS011;61524;50.938;11.396;2023-08-30T03:01:36;4.18;;;2.10;;
73296;SDS011;61524;50.938;11.396;2023-08-30T03:04:01;4.25;;;1.80;;
73296;SDS011;61524;50.938;11.396;2023-08-30T03:06:27;5.20;;;2.07;;
73296;SDS011;61524;50.938;11.396;2023-08-30T03:08:55;3.73;;;2.07;;
73296;SDS011;61524;50.938;11.396;2023-08-30T03:11:20;3.83;;;1.98;;
73296;SDS011;61524;50.938;11.396;2023-08-30T03:13:46;5.10;;;1.92;;
73296;SDS011;61524;50.938;11.396;2023-08-30T03:18:36;4.78;;;2.70;;
73296;SDS011;61524;50.938;11.396;2023-08-30T03:21:02;4.72;;;1.88;;
73296;SDS011;61524;50.938;11.396;2023-08-30T03:23:27;5.77;;;2.53;;
73296;SDS011;61524;50.938;11.396;2023-08-30T03:25:52;3.67;;;1.80;;
73296;SDS011;61524;50.938;11.396;2023-08-30T03:28:18;4.03;;;1.70;;
73296;SDS011;61524;50.938;11.396;2023-08-30T03:30:43;3.95;;;1.92;;
73296;SDS011;61524;50.938;11.396;2023-08-30T03:33:08;4.60;;;2.67;;
73296;SDS011;61524;50.938;11.396;2023-08-30T03:35:34;3.80;;;1.97;;
73296;SDS011;61524;50.938;11.396;2023-08-30T03:38:00;3.30;;;2.00;;
73296;SDS011;61524;50.938;11.396;2023-08-30T03:40:25;5.40;;;1.67;;
73296;SDS011;61524;50.938;11.396;2023-08-30T03:42:52;3.53;;;1.65;;
73296;SDS011;61524;50.938;11.396;2023-08-30T03:45:17;5.43;;;2.37;;
73296;SDS011;61524;50.938;11.396;2023-08-30T03:47:43;4.40;;;2.60;;
73296;SDS011;61524;50.938;11.396;2023-08-30T03:50:08;6.23;;;1.97;;
73296;SDS011;61524;50.938;11.396;2023-08-30T03:52:34;7.38;;;2.20;;
73296;SDS011;61524;50.938;11.396;2023-08-30T03:55:00;3.67;;;1.92;;
73296;SDS011;61524;50.938;11.396;2023-08-30T03:57:25;3.83;;;2.05;;
73296;SDS011;61524;50.938;11.396;2023-08-30T03:59:51;5.45;;;2.55;;
73296;SDS011;61524;50.938;11.396;2023-08-30T04:02:16;4.15;;;1.83;;
73296;SDS011;61524;50.938;11.396;2023-08-30T04:04:42;3.53;;;2.15;;
73296;SDS011;61524;50.938;11.396;2023-08-30T04:07:07;4.65;;;2.55;;
73296;SDS011;61524;50.938;11.396;2023-08-30T04:09:32;4.45;;;2.65;;
73296;SDS011;61524;50.938;11.396;2023-08-30T04:11:57;5.32;;;2.42;;
73296;SDS011;61524;50.938;11.396;2023-08-30T04:14:24;4.60;;;2.38;;
73296;SDS011;61524;50.938;11.396;2023-08-30T04:16:49;4.38;;;2.25;;
73296;SDS011;61524;50.938;11.396;2023-08-30T04:19:14;4.20;;;2.20;;
73296;SDS011;61524;50.938;11.396;2023-08-30T04:21:40;3.70;;;2.23;;
73296;SDS011;61524;50.938;11.396;2023-08-30T04:24:05;5.72;;;2.47;;
73296;SDS011;61524;50.938;11.396;2023-08-30T04:26:30;4.95;;;2.10;;
73296;SDS011;61524;50.938;11.396;2023-08-30T04:28:56;4.07;;;2.27;;
73296;SDS011;61524;50.938;11.396;2023-08-30T04:31:21;5.20;;;2.80;;
73296;SDS011;61524;50.938;11.396;2023-08-30T04:33:46;4.47;;;2.13;;
73296;SDS011;61524;50.938;11.396;2023-08-30T04:36:12;3.77;;;2.17;;
73296;SDS011;61524;50.938;11.396;2023-08-30T04:38:37;4.47;;;2.20;;
73296;SDS011;61524;50.938;11.396;2023-08-30T04:41:02;4.27;;;2.40;;
73296;SDS011;61524;50.938;11.396;2023-08-30T04:43:27;3.67;;;2.30;;
73296;SDS011;61524;50.938;11.396;2023-08-30T04:45:53;4.10;;;2.20;;
73296;SDS011;61524;50.938;11.396;2023-08-30T04:48:18;4.65;;;1.95;;
73296;SDS011;61524;50.938;11.396;2023-08-30T04:50:44;3.40;;;2.08;;
73296;SDS011;61524;50.938;11.396;2023-08-30T04:53:09;4.22;;;2.20;;
73296;SDS011;61524;50.938;11.396;2023-08-30T04:55:34;6.50;;;2.10;;
73296;SDS011;61524;50.938;11.396;2023-08-30T04:58:00;5.03;;;2.03;;
73296;SDS011;61524;50.938;11.396;2023-08-30T05:00:25;6.47;;;2.55;;
73296;SDS011;61524;50.938;11.396;2023-08-30T05:02:50;9.20;;;2.47;;
73296;SDS011;61524;50.938;11.396;2023-08-30T05:05:16;4.13;;;2.40;;
73296;SDS011;61524;50.938;11.396;2023-08-30T05:07:41;4.25;;;2.33;;
73296;SDS011;61524;50.938;11.396;2023-08-30T05:10:06;7.20;;;2.43;;
73296;SDS011;61524;50.938;11.396;2023-08-30T05:12:35;6.95;;;2.47;;
73296;SDS011;61524;50.938;11.396;2023-08-30T05:15:00;4.15;;;1.77;;
73296;SDS011;61524;50.938;11.396;2023-08-30T05:17:26;3.42;;;1.80;;
73296;SDS011;61524;50.938;11.396;2023-08-30T05:19:53;3.78;;;2.28;;
73296;SDS011;61524;50.938;11.396;2023-08-30T05:22:18;6.27;;;2.20;;
73296;SDS011;61524;50.938;11.396;2023-08-30T05:24:44;5.25;;;2.63;;
73296;SDS011;61524;50.938;11.396;2023-08-30T05:27:09;5.15;;;2.45;;
73296;SDS011;61524;50.938;11.396;2023-08-30T05:29:36;8.02;;;2.63;;
73296;SDS011;61524;50.938;11.396;2023-08-30T05:32:01;3.55;;;2.10;;
73296;SDS011;61524;50.938;11.396;2023-08-30T05:34:27;5.93;;;2.30;;
73296;SDS011;61524;50.938;11.396;2023-08-30T05:36:53;4.25;;;2.28;;
73296;SDS011;61524;50.938;11.396;2023-08-30T05:39:18;3.85;;;2.13;;
73296;SDS011;61524;50.938;11.396;2023-08-30T05:41:43;4.15;;;2.42;;
73296;SDS011;61524;50.938;11.396;2023-08-30T05:44:09;4.50;;;2.05;;
73296;SDS011;61524;50.938;11.396;2023-08-30T05:46:34;3.72;;;2.25;;
73296;SDS011;61524;50.938;11.396;2023-08-30T05:48:59;4.13;;;2.07;;
73296;SDS011;61524;50.938;11.396;2023-08-30T05:51:27;4.03;;;1.92;;
73296;SDS011;61524;50.938;11.396;2023-08-30T05:53:52;3.40;;;1.83;;
73296;SDS011;61524;50.938;11.396;2023-08-30T05:56:18;4.38;;;2.40;;
73296;SDS011;61524;50.938;11.396;2023-08-30T05:58:43;4.20;;;2.20;;
73296;SDS011;61524;50.938;11.396;2023-08-30T06:01:08;3.17;;;1.77;;
73296;SDS011;61524;50.938;11.396;2023-08-30T06:03:33;6.23;;;2.10;;
73296;SDS011;61524;50.938;11.396;2023-08-30T06:05:59;3.97;;;2.00;;
73296;SDS011;61524;50.938;11.396;2023-08-30T06:08:24;3.80;;;2.10;;
73296;SDS011;61524;50.938;11.396;2023-08-30T06:10:50;3.97;;;2.23;;
73296;SDS011;61524;50.938;11.396;2023-08-30T06:13:15;5.05;;;2.17;;
73296;SDS011;61524;50.938;11.396;2023-08-30T06:15:40;4.23;;;2.20;;
73296;SDS011;61524;50.938;11.396;2023-08-30T06:18:06;4.87;;;2.40;;
73296;SDS011;61524;50.938;11.396;2023-08-30T06:20:31;4.88;;;2.05;;
73296;SDS011;61524;50.938;11.396;2023-08-30T06:23:02;4.73;;;2.27;;
73296;SDS011;61524;50.938;11.396;2023-08-30T06:25:28;3.60;;;2.00;;
73296;SDS011;61524;50.938;11.396;2023-08-30T06:27:56;4.63;;;1.93;;
73296;SDS011;61524;50.938;11.396;2023-08-30T06:30:22;6.43;;;2.10;;
73296;SDS011;61524;50.938;11.396;2023-08-30T06:32:48;3.38;;;1.70;;
73296;SDS011;61524;50.938;11.396;2023-08-30T06:35:13;3.85;;;1.90;;
73296;SDS011;61524;50.938;11.396;2023-08-30T06:37:38;4.10;;;2.20;;
73296;SDS011;61524;50.938;11.396;2023-08-30T06:40:04;4.30;;;2.45;;
73296;SDS011;61524;50.938;11.396;2023-08-30T06:42:29;3.72;;;2.30;;
73296;SDS011;61524;50.938;11.396;2023-08-30T06:44:54;4.60;;;2.27;;
73296;SDS011;61524;50.938;11.396;2023-08-30T06:47:20;5.75;;;2.60;;
73296;SDS011;61524;50.938;11.396;2023-08-30T06:49:46;3.38;;;1.77;;
73296;SDS011;61524;50.938;11.396;2023-08-30T06:52:11;11.30;;;2.10;;
73296;SDS011;61524;50.938;11.396;2023-08-30T06:54:36;3.27;;;1.87;;
73296;SDS011;61524;50.938;11.396;2023-08-30T06:57:01;3.20;;;1.50;;
73296;SDS011;61524;50.938;11.396;2023-08-30T06:59:28;3.03;;;1.40;;
73296;SDS011;61524;50.938;11.396;2023-08-30T07:01:53;3.50;;;1.83;;
73296;SDS011;61524;50.938;11.396;2023-08-30T07:04:18;3.10;;;1.73;;
73296;SDS011;61524;50.938;11.396;2023-08-30T07:06:44;3.63;;;1.75;;
73296;SDS011;61524;50.938;11.396;2023-08-30T07:09:09;3.50;;;1.85;;
73296;SDS011;61524;50.938;11.396;2023-08-30T07:11:36;2.97;;;1.50;;
73296;SDS011;61524;50.938;11.396;2023-08-30T07:14:01;3.95;;;1.40;;
73296;SDS011;61524;50.938;11.396;2023-08-30T07:16:26;3.80;;;1.60;;
73296;SDS011;61524;50.938;11.396;2023-08-30T07:18:52;3.63;;;2.22;;
73296;SDS011;61524;50.938;11.396;2023-08-30T07:21:17;5.78;;;1.65;;
73296;SDS011;61524;50.938;11.396;2023-08-30T07:23:43;3.33;;;1.70;;
73296;SDS011;61524;50.938;11.396;2023-08-30T07:26:08;3.45;;;2.03;;
73296;SDS011;61524;50.938;11.396;2023-08-30T07:28:34;4.03;;;1.83;;
73296;SDS011;61524;50.938;11.396;2023-08-30T07:31:05;3.90;;;2.17;;
73296;SDS011;61524;50.938;11.396;2023-08-30T07:33:30;5.35;;;1.92;;
73296;SDS011;61524;50.938;11.396;2023-08-30T07:35:56;3.08;;;1.67;;
73296;SDS011;61524;50.938;11.396;2023-08-30T07:38:21;4.70;;;2.10;;
73296;SDS011;61524;50.938;11.396;2023-08-30T07:40:46;4.57;;;1.80;;
73296;SDS011;61524;50.938;11.396;2023-08-30T07:43:11;3.73;;;1.50;;
73296;SDS011;61524;50.938;11.396;2023-08-30T07:45:37;3.67;;;1.70;;
73296;SDS011;61524;50.938;11.396;2023-08-30T07:48:02;3.70;;;1.73;;
73296;SDS011;61524;50.938;11.396;2023-08-30T07:50:27;2.58;;;1.45;;
73296;SDS011;61524;50.938;11.396;2023-08-30T07:52:53;2.88;;;1.58;;
73296;SDS011;61524;50.938;11.396;2023-08-30T07:55:18;5.27;;;1.60;;
73296;SDS011;61524;50.938;11.396;2023-08-30T07:57:43;3.07;;;1.50;;
73296;SDS011;61524;50.938;11.396;2023-08-30T08:00:09;3.60;;;1.40;;
73296;SDS011;61524;50.938;11.396;2023-08-30T08:02:34;2.90;;;1.38;;
73296;SDS011;61524;50.938;11.396;2023-08-30T08:04:59;2.87;;;1.30;;
73296;SDS011;61524;50.938;11.396;2023-08-30T08:07:25;3.47;;;1.23;;
73296;SDS011;61524;50.938;11.396;2023-08-30T08:09:50;2.53;;;1.10;;
73296;SDS011;61524;50.938;11.396;2023-08-30T08:12:15;3.50;;;1.60;;
73296;SDS011;61524;50.938;11.396;2023-08-30T08:14:40;3.70;;;1.70;;
73296;SDS011;61524;50.938;11.396;2023-08-30T08:17:06;3.70;;;1.43;;
73296;SDS011;61524;50.938;11.396;2023-08-30T08:19:31;2.50;;;1.30;;
73296;SDS011;61524;50.938;11.396;2023-08-30T08:21:56;3.83;;;1.30;;
73296;SDS011;61524;50.938;11.396;2023-08-30T08:24:22;3.87;;;1.37;;
73296;SDS011;61524;50.938;11.396;2023-08-30T08:26:47;2.83;;;1.03;;
73296;SDS011;61524;50.938;11.396;2023-08-30T08:29:12;3.17;;;1.47;;
73296;SDS011;61524;50.938;11.396;2023-08-30T08:31:38;3.13;;;1.20;;
73296;SDS011;61524;50.938;11.396;2023-08-30T08:34:07;2.42;;;1.15;;
73296;SDS011;61524;50.938;11.396;2023-08-30T08:36:33;1.95;;;1.00;;
73296;SDS011;61524;50.938;11.396;2023-08-30T08:38:58;3.37;;;1.20;;
73296;SDS011;61524;50.938;11.396;2023-08-30T08:41:23;3.67;;;1.40;;
73296;SDS011;61524;50.938;11.396;2023-08-30T08:43:50;5.95;;;1.23;;
73296;SDS011;61524;50.938;11.396;2023-08-30T08:46:16;3.28;;;1.40;;
73296;SDS011;61524;50.938;11.396;2023-08-30T08:48:43;2.53;;;1.50;;
73296;SDS011;61524;50.938;11.396;2023-08-30T08:51:08;3.13;;;1.30;;
73296;SDS011;61524;50.938;11.396;2023-08-30T08:53:34;3.58;;;1.40;;
73296;SDS011;61524;50.938;11.396;2023-08-30T08:56:00;3.22;;;1.27;;
73296;SDS011;61524;50.938;11.396;2023-08-30T08:58:25;4.05;;;1.35;;
73296;SDS011;61524;50.938;11.396;2023-08-30T09:00:51;3.60;;;1.30;;
73296;SDS011;61524;50.938;11.396;2023-08-30T09:03:17;3.20;;;1.27;;
73296;SDS011;61524;50.938;11.396;2023-08-30T09:05:43;3.25;;;1.15;;
73296;SDS011;61524;50.938;11.396;2023-08-30T09:08:11;5.40;;;1.27;;
73296;SDS011;61524;50.938;11.396;2023-08-30T09:10:38;2.78;;;1.10;;
73296;SDS011;61524;50.938;11.396;2023-08-30T09:13:04;2.97;;;1.05;;
73296;SDS011;61524;50.938;11.396;2023-08-30T09:15:32;1.93;;;0.83;;
73296;SDS011;61524;50.938;11.396;2023-08-30T09:17:57;1.42;;;0.73;;
73296;SDS011;61524;50.938;11.396;2023-08-30T09:20:23;1.98;;;0.90;;
73296;SDS011;61524;50.938;11.396;2023-08-30T09:22:48;1.90;;;1.00;;
73296;SDS011;61524;50.938;11.396;2023-08-30T09:25:22;1.77;;;1.00;;
73296;SDS011;61524;50.938;11.396;2023-08-30T09:27:50;1.70;;;0.88;;
73296;SDS011;61524;50.938;11.396;2023-08-30T09:30:20;1.80;;;0.85;;
73296;SDS011;61524;50.938;11.396;2023-08-30T09:32:46;2.15;;;1.00;;
73296;SDS011;61524;50.938;11.396;2023-08-30T09:35:11;2.07;;;1.00;;
73296;SDS011;61524;50.938;11.396;2023-08-30T09:37:36;3.87;;;1.07;;
73296;SDS011;61524;50.938;11.396;2023-08-30T09:40:02;1.90;;;0.90;;
73296;SDS011;61524;50.938;11.396;2023-08-30T09:42:28;2.33;;;1.20;;
73296;SDS011;61524;50.938;11.396;2023-08-30T09:44:54;1.83;;;0.52;;
73296;SDS011;61524;50.938;11.396;2023-08-30T09:47:19;1.88;;;0.82;;
73296;SDS011;61524;50.938;11.396;2023-08-30T09:49:45;3.05;;;0.85;;
73296;SDS011;61524;50.938;11.396;2023-08-30T09:52:10;2.28;;;0.82;;
73296;SDS011;61524;50.938;11.396;2023-08-30T09:54:37;1.60;;;0.80;;
73296;SDS011;61524;50.938;11.396;2023-08-30T09:57:06;2.63;;;0.75;;
73296;SDS011;61524;50.938;11.396;2023-08-30T09:59:32;2.95;;;0.98;;
73296;SDS011;61524;50.938;11.396;2023-08-30T10:01:57;2.78;;;0.80;;
73296;SDS011;61524;50.938;11.396;2023-08-30T10:04:25;2.22;;;0.70;;
73296;SDS011;61524;50.938;11.396;2023-08-30T10:06:51;1.50;;;0.70;;
73296;SDS011;61524;50.938;11.396;2023-08-30T10:09:16;2.17;;;1.00;;
73296;SDS011;61524;50.938;11.396;2023-08-30T10:11:42;1.30;;;0.60;;
73296;SDS011;61524;50.938;11.396;2023-08-30T10:14:09;2.25;;;0.80;;
73296;SDS011;61524;50.938;11.396;2023-08-30T10:16:45;1.40;;;0.70;;
73296;SDS011;61524;50.938;11.396;2023-08-30T10:19:11;1.88;;;0.70;;
73296;SDS011;61524;50.938;11.396;2023-08-30T10:21:37;1.60;;;0.75;;
73296;SDS011;61524;50.938;11.396;2023-08-30T10:24:03;1.95;;;0.95;;
73296;SDS011;61524;50.938;11.396;2023-08-30T10:26:30;2.30;;;0.90;;
73296;SDS011;61524;50.938;11.396;2023-08-30T10:28:57;2.60;;;0.80;;
73296;SDS011;61524;50.938;11.396;2023-08-30T10:31:23;2.05;;;0.77;;
73296;SDS011;61524;50.938;11.396;2023-08-30T10:33:49;2.33;;;0.95;;
73296;SDS011;61524;50.938;11.396;2023-08-30T10:36:20;1.42;;;0.60;;
73296;SDS011;61524;50.938;11.396;2023-08-30T10:38:48;3.78;;;0.80;;
73296;SDS011;61524;50.938;11.396;2023-08-30T10:41:19;2.00;;;0.90;;
73296;SDS011;61524;50.938;11.396;2023-08-30T10:43:44;2.03;;;0.95;;
73296;SDS011;61524;50.938;11.396;2023-08-30T10:46:14;2.70;;;0.82;;
73296;SDS011;61524;50.938;11.396;2023-08-30T10:48:40;1.42;;;0.70;;
73296;SDS011;61524;50.938;11.396;2023-08-30T10:51:10;1.58;;;0.80;;
73296;SDS011;61524;50.938;11.396;2023-08-30T10:53:41;2.03;;;0.88;;
73296;SDS011;61524;50.938;11.396;2023-08-30T10:56:10;1.33;;;0.80;;
73296;SDS011;61524;50.938;11.396;2023-08-30T10:58:38;1.85;;;0.85;;
73296;SDS011;61524;50.938;11.396;2023-08-30T11:01:04;1.73;;;0.90;;
73296;SDS011;61524;50.938;11.396;2023-08-30T11:03:29;1.83;;;0.75;;
73296;SDS011;61524;50.938;11.396;2023-08-30T11:05:55;1.52;;;0.90;;
73296;SDS011;61524;50.938;11.396;2023-08-30T11:08:21;1.90;;;0.93;;
73296;SDS011;61524;50.938;11.396;2023-08-30T11:10:46;2.72;;;1.50;;
73296;SDS011;61524;50.938;11.396;2023-08-30T11:13:14;3.90;;;1.15;;
73296;SDS011;61524;50.938;11.396;2023-08-30T11:15:39;2.17;;;0.93;;
73296;SDS011;61524;50.938;11.396;2023-08-30T11:18:05;3.83;;;1.20;;
73296;SDS011;61524;50.938;11.396;2023-08-30T11:20:31;2.70;;;1.15;;
73296;SDS011;61524;50.938;11.396;2023-08-30T11:22:56;1.80;;;1.00;;
73296;SDS011;61524;50.938;11.396;2023-08-30T11:25:21;2.78;;;1.20;;
73296;SDS011;61524;50.938;11.396;2023-08-30T11:27:47;3.47;;;1.10;;
73296;SDS011;61524;50.938;11.396;2023-08-30T11:30:12;2.85;;;1.20;;
73296;SDS011;61524;50.938;11.396;2023-08-30T11:32:41;3.35;;;1.00;;
73296;SDS011;61524;50.938;11.396;2023-08-30T11:35:09;3.50;;;1.65;;
73296;SDS011;61524;50.938;11.396;2023-08-30T11:37:35;2.60;;;1.20;;
73296;SDS011;61524;50.938;11.396;2023-08-30T11:40:01;2.35;;;1.10;;
73296;SDS011;61524;50.938;11.396;2023-08-30T11:42:26;2.67;;;1.10;;
73296;SDS011;61524;50.938;11.396;2023-08-30T11:44:52;2.35;;;1.05;;
73296;SDS011;61524;50.938;11.396;2023-08-30T11:47:18;2.08;;;1.10;;
73296;SDS011;61524;50.938;11.396;2023-08-30T11:49:44;2.25;;;1.13;;
73296;SDS011;61524;50.938;11.396;2023-08-30T11:52:10;4.93;;;1.90;;
73296;SDS011;61524;50.938;11.396;2023-08-30T11:54:35;2.97;;;1.20;;
73296;SDS011;61524;50.938;11.396;2023-08-30T11:57:00;2.35;;;1.23;;
73296;SDS011;61524;50.938;11.396;2023-08-30T11:59:26;3.08;;;1.13;;
73296;SDS011;61524;50.938;11.396;2023-08-30T12:01:54;1.73;;;0.93;;
73296;SDS011;61524;50.938;11.396;2023-08-30T12:04:19;2.20;;;1.20;;
73296;SDS011;61524;50.938;11.396;2023-08-30T12:06:54;3.05;;;1.40;;
73296;SDS011;61524;50.938;11.396;2023-08-30T12:09:19;2.28;;;1.20;;
73296;SDS011;61524;50.938;11.396;2023-08-30T12:11:50;3.88;;;1.30;;
73296;SDS011;61524;50.938;11.396;2023-08-30T12:14:16;2.38;;;1.10;;
73296;SDS011;61524;50.938;11.396;2023-08-30T12:16:42;2.80;;;0.82;;
73296;SDS011;61524;50.938;11.396;2023-08-30T12:19:07;2.22;;;1.17;;
73296;SDS011;61524;50.938;11.396;2023-08-30T12:21:41;2.25;;;1.30;;
73296;SDS011;61524;50.938;11.396;2023-08-30T12:24:07;2.47;;;1.13;;
73296;SDS011;61524;50.938;11.396;2023-08-30T12:26:32;2.17;;;1.00;;
73296;SDS011;61524;50.938;11.396;2023-08-30T12:28:58;2.53;;;1.30;;
73296;SDS011;61524;50.938;11.396;2023-08-30T12:31:23;3.03;;;1.20;;
73296;SDS011;61524;50.938;11.396;2023-08-30T12:33:48;2.33;;;1.30;;
73296;SDS011;61524;50.938;11.396;2023-08-30T12:36:14;7.82;;;1.50;;
73296;SDS011;61524;50.938;11.396;2023-08-30T12:38:39;3.07;;;1.20;;
73296;SDS011;61524;50.938;11.396;2023-08-30T12:41:06;2.17;;;1.00;;
73296;SDS011;61524;50.938;11.396;2023-08-30T12:45:56;2.50;;;1.23;;
73296;SDS011;61524;50.938;11.396;2023-08-30T12:48:21;2.90;;;1.20;;
73296;SDS011;61524;50.938;11.396;2023-08-30T12:50:48;2.60;;;1.23;;
73296;SDS011;61524;50.938;11.396;2023-08-30T12:53:13;2.70;;;1.63;;
73296;SDS011;61524;50.938;11.396;2023-08-30T12:55:40;1.92;;;1.10;;
73296;SDS011;61524;50.938;11.396;2023-08-30T12:58:06;7.53;;;1.73;;
73296;SDS011;61524;50.938;11.396;2023-08-30T13:00:31;2.47;;;1.30;;
73296;SDS011;61524;50.938;11.396;2023-08-30T13:02:57;2.63;;;1.33;;
73296;SDS011;61524;50.938;11.396;2023-08-30T13:05:22;4.03;;;1.30;;
73296;SDS011;61524;50.938;11.396;2023-08-30T13:07:48;3.67;;;1.17;;
73296;SDS011;61524;50.938;11.396;2023-08-30T13:10:13;2.55;;;1.23;;
73296;SDS011;61524;50.938;11.396;2023-08-30T13:12:39;2.15;;;1.08;;
73296;SDS011;61524;50.938;11.396;2023-08-30T13:15:05;2.40;;;1.38;;
73296;SDS011;61524;50.938;11.396;2023-08-30T13:17:30;2.17;;;1.27;;
73296;SDS011;61524;50.938;11.396;2023-08-30T13:19:55;2.75;;;1.30;;
73296;SDS011;61524;50.938;11.396;2023-08-30T13:22:23;2.72;;;1.30;;
73296;SDS011;61524;50.938;11.396;2023-08-30T13:24:48;3.10;;;1.17;;
73296;SDS011;61524;50.938;11.396;2023-08-30T13:27:13;1.83;;;1.02;;
73296;SDS011;61524;50.938;11.396;2023-08-30T13:29:39;2.63;;;1.25;;
73296;SDS011;61524;50.938;11.396;2023-08-30T13:32:04;2.38;;;1.10;;
73296;SDS011;61524;50.938;11.396;2023-08-30T13:34:29;3.45;;;1.13;;
73296;SDS011;61524;50.938;11.396;2023-08-30T13:36:55;2.23;;;1.00;;
73296;SDS011;61524;50.938;11.396;2023-08-30T13:39:20;2.73;;;1.53;;
73296;SDS011;61524;50.938;11.396;2023-08-30T13:41:46;2.63;;;1.27;;
73296;SDS011;61524;50.938;11.396;2023-08-30T13:44:11;3.03;;;1.40;;
73296;SDS011;61524;50.938;11.396;2023-08-30T13:46:37;2.72;;;1.20;;
73296;SDS011;61524;50.938;11.396;2023-08-30T13:49:02;3.10;;;1.47;;
73296;SDS011;61524;50.938;11.396;2023-08-30T13:51:28;3.15;;;1.27;;
73296;SDS011;61524;50.938;11.396;2023-08-30T13:53:53;2.23;;;1.23;;
73296;SDS011;61524;50.938;11.396;2023-08-30T13:56:19;2.65;;;1.40;;
73296;SDS011;61524;50.938;11.396;2023-08-30T13:58:44;3.63;;;1.50;;
73296;SDS011;61524;50.938;11.396;2023-08-30T14:01:10;3.30;;;1.70;;
73296;SDS011;61524;50.938;11.396;2023-08-30T14:03:35;3.33;;;1.77;;
73296;SDS011;61524;50.938;11.396;2023-08-30T14:06:00;3.00;;;1.40;;
73296;SDS011;61524;50.938;11.396;2023-08-30T14:08:25;2.70;;;1.30;;
73296;SDS011;61524;50.938;11.396;2023-08-30T14:10:51;3.67;;;1.73;;
73296;SDS011;61524;50.938;11.396;2023-08-30T14:13:16;3.83;;;1.93;;
73296;SDS011;61524;50.938;11.396;2023-08-30T14:15:41;3.03;;;1.43;;
73296;SDS011;61524;50.938;11.396;2023-08-30T14:18:07;3.30;;;1.42;;
73296;SDS011;61524;50.938;11.396;2023-08-30T14:20:33;2.83;;;1.40;;
73296;SDS011;61524;50.938;11.396;2023-08-30T14:22:58;3.55;;;1.42;;
73296;SDS011;61524;50.938;11.396;2023-08-30T14:25:23;3.00;;;1.47;;
73296;SDS011;61524;50.938;11.396;2023-08-30T14:27:50;3.17;;;1.60;;
73296;SDS011;61524;50.938;11.396;2023-08-30T14:30:15;2.85;;;1.60;;
73296;SDS011;61524;50.938;11.396;2023-08-30T14:32:41;3.15;;;1.52;;
73296;SDS011;61524;50.938;11.396;2023-08-30T14:35:06;5.25;;;1.95;;
73296;SDS011;61524;50.938;11.396;2023-08-30T14:37:32;3.42;;;1.65;;
73296;SDS011;61524;50.938;11.396;2023-08-30T14:40:00;3.50;;;1.80;;